Time;durP1;ratioP1;P1;durP2;ratioP2;P2;SDS_P1;SDS_P2;PMS_P1;PMS_P2;Temp;Humidity;BMP_temperature;BMP_pressure;BME280_temperature;BME280_humidity;BME280_pressure;Samples;Min_cycle;Max_cycle;Signal;HPM_P1;HPM_P2
2023/12/29 00:02:21;;;;;;;14.60;10.10;;;;;;;4.26;83.09;99627.90;107822;1261;71639;-87
2023/12/29 00:04:50;;;;;;;11.70;8.70;;;;;;;4.35;82.78;99628.67;107765;1262;59998;-87
2023/12/29 00:07:19;;;;;;;12.30;8.70;;;;;;;4.41;83.28;99626.94;108613;1259;60443;-86
2023/12/29 00:09:49;;;;;;;15.50;10.20;;;;;;;4.40;83.30;99623.34;108850;1258;71588;-85
2023/12/29 00:12:16;;;;;;;13.10;9.20;;;;;;;4.41;83.45;99623.05;109212;1259;68952;-86
2023/12/29 00:14:44;;;;;;;13.30;9.20;;;;;;;4.43;83.57;99622.86;109106;1260;71194;-85
2023/12/29 00:17:12;;;;;;;10.90;8.50;;;;;;;4.54;83.31;99615.52;109077;1260;59714;-86
2023/12/29 00:19:44;;;;;;;13.60;8.50;;;;;;;4.65;83.20;99616.14;108658;1257;58996;-86
2023/12/29 00:22:44;;;;;;;12.90;9.70;;;;;;;4.65;83.38;99610.51;107180;1265;73509;-87
2023/12/29 00:25:15;;;;;;;13.40;9.40;;;;;;;4.61;83.37;99608.17;107127;1263;69707;-82
2023/12/29 00:27:42;;;;;;;12.90;9.50;;;;;;;4.59;83.47;99613.44;107332;1257;72832;-82
2023/12/29 00:30:10;;;;;;;14.90;9.60;;;;;;;4.67;83.48;99614.55;107446;1257;59722;-81
2023/12/29 00:32:37;;;;;;;13.70;10.10;;;;;;;4.74;83.18;99614.64;106968;1257;59362;-81
2023/12/29 00:35:04;;;;;;;15.10;10.00;;;;;;;4.72;83.45;99612.20;106875;1261;72958;-80
2023/12/29 00:37:32;;;;;;;19.60;13.20;;;;;;;4.67;83.77;99610.63;107015;1260;70258;-87
2023/12/29 00:41:33;;;;;;;14.60;10.40;;;;;;;4.69;83.80;99604.38;107849;1259;72448;-85
2023/12/29 00:44:33;;;;;;;14.60;10.10;;;;;;;4.78;83.67;99594.30;107148;1260;59549;-81
2023/12/29 00:47:00;;;;;;;13.70;10.50;;;;;;;4.72;83.95;99596.16;107519;1265;60065;-85
2023/12/29 00:49:28;;;;;;;15.00;10.80;;;;;;;4.68;84.24;99594.80;107923;1265;72182;-84
2023/12/29 00:51:55;;;;;;;14.00;10.10;;;;;;;4.71;84.08;99596.43;107800;1263;69149;-83
2023/12/29 00:54:23;;;;;;;16.90;10.80;;;;;;;4.79;84.09;99592.25;108031;1257;71339;-82
2023/12/29 00:56:57;;;;;;;13.10;9.40;;;;;;;4.80;84.25;99588.37;107641;1259;59283;-82
2023/12/29 00:59:29;;;;;;;17.30;10.40;;;;;;;4.75;84.26;99590.52;108110;1260;60361;-81
2023/12/29 01:01:56;;;;;;;12.30;9.20;;;;;;;4.76;84.47;99589.05;108458;1260;72000;-83
2023/12/29 01:04:23;;;;;;;12.70;9.60;;;;;;;4.80;84.30;99580.45;109150;1262;70489;-81
2023/12/29 01:06:50;;;;;;;15.70;11.00;;;;;;;4.82;84.26;99581.70;109055;1260;72026;-82
2023/12/29 01:09:17;;;;;;;15.60;11.20;;;;;;;4.78;84.62;99576.60;108415;1260;58999;-83
2023/12/29 01:11:44;;;;;;;13.90;10.20;;;;;;;4.78;84.40;99571.30;108637;1259;59245;-82
2023/12/29 01:14:11;;;;;;;12.30;9.80;;;;;;;4.86;84.49;99567.45;107982;1257;71679;-82
2023/12/29 01:16:38;;;;;;;16.40;11.30;;;;;;;4.82;84.59;99563.52;108970;1257;69407;-81
2023/12/29 01:19:05;;;;;;;14.60;10.70;;;;;;;4.79;84.87;99570.17;108832;1257;70423;-83
2023/12/29 01:21:33;;;;;;;12.90;9.70;;;;;;;4.78;85.33;99574.61;109056;1257;59680;-82
2023/12/29 01:24:01;;;;;;;16.90;10.50;;;;;;;4.85;85.04;99578.80;109065;1260;59071;-84
2023/12/29 01:26:28;;;;;;;15.60;10.80;;;;;;;4.80;85.49;99574.95;108333;1265;71513;-84
2023/12/29 01:28:55;;;;;;;15.00;10.20;;;;;;;4.75;85.59;99567.39;108157;1262;68020;-85
2023/12/29 01:31:23;;;;;;;13.40;9.20;;;;;;;4.69;86.24;99567.84;107947;1260;71275;-86
2023/12/29 01:33:51;;;;;;;14.10;10.50;;;;;;;4.74;86.48;99567.28;107695;1259;59739;-83
2023/12/29 01:36:21;;;;;;;13.40;10.10;;;;;;;4.76;86.46;99563.77;108304;1260;59519;-83
2023/12/29 01:38:52;;;;;;;14.90;11.10;;;;;;;4.69;86.99;99566.80;108949;1260;72084;-81
2023/12/29 01:41:20;;;;;;;16.20;11.20;;;;;;;4.67;87.09;99562.60;108750;1263;68930;-81
2023/12/29 01:43:56;;;;;;;12.60;9.90;;;;;;;4.76;88.09;99560.61;109140;1257;72509;-83
2023/12/29 01:46:31;;;;;;;15.60;11.10;;;;;;;4.84;87.73;99551.28;109022;1260;59832;-83
2023/12/29 01:48:59;;;;;;;15.10;10.20;;;;;;;4.83;87.96;99551.16;108992;1263;58878;-83
2023/12/29 01:51:27;;;;;;;17.50;10.10;;;;;;;4.82;89.01;99560.36;107521;1257;73345;-84
2023/12/29 01:53:55;;;;;;;15.60;11.00;;;;;;;4.91;88.76;99556.98;107755;1260;71034;-84
2023/12/29 01:56:59;;;;;;;;;;;;;;;;;;;;;
2023/12/29 02:00:06;;;;;;;15.30;11.50;;;;;;;5.03;88.90;99559.23;109105;1261;58366;-81
2023/12/29 02:03:17;;;;;;;18.30;11.00;;;;;;;5.07;88.97;99558.93;108908;1264;59327;-83
2023/12/29 02:05:45;;;;;;;18.00;11.50;;;;;;;5.16;88.65;99560.92;107465;1263;73090;-85
2023/12/29 02:08:12;;;;;;;16.60;11.90;;;;;;;5.21;88.74;99559.97;107543;1261;67944;-85
2023/12/29 02:10:39;;;;;;;14.50;11.30;;;;;;;5.15;88.63;99557.13;107757;1261;71093;-83
2023/12/29 02:13:06;;;;;;;13.90;10.60;;;;;;;5.17;88.65;99555.89;107540;1260;60563;-85
2023/12/29 02:15:33;;;;;;;15.60;10.70;;;;;;;5.23;88.50;99552.68;107139;1260;59675;-84
2023/12/29 02:18:02;;;;;;;15.60;11.00;;;;;;;5.23;88.14;99551.83;107261;1265;71476;-81
2023/12/29 02:20:30;;;;;;;15.00;11.00;;;;;;;5.19;88.63;99552.07;108326;1260;69077;-83
2023/12/29 02:22:57;;;;;;;17.10;11.20;;;;;;;5.17;88.63;99548.57;108889;1260;71163;-82
2023/12/29 02:25:24;;;;;;;15.80;9.90;;;;;;;5.24;88.31;99542.65;108092;1259;59765;-83
2023/12/29 02:27:51;;;;;;;15.10;11.40;;;;;;;5.32;88.37;99542.77;107895;1261;59478;-82
2023/12/29 02:30:24;;;;;;;15.60;11.80;;;;;;;5.30;88.58;99537.51;107554;1260;72567;-84
2023/12/29 02:32:54;;;;;;;16.50;11.20;;;;;;;5.27;88.72;99534.48;106869;1266;69120;-82
2023/12/29 02:35:23;;;;;;;17.70;12.00;;;;;;;5.27;88.92;99531.25;108060;1259;71411;-81
2023/12/29 02:37:50;;;;;;;14.30;10.40;;;;;;;5.37;88.77;99526.73;107195;1257;60384;-82
2023/12/29 02:40:17;;;;;;;14.10;10.70;;;;;;;5.38;88.78;99524.50;107127;1258;60391;-81
2023/12/29 02:42:48;;;;;;;15.40;11.50;;;;;;;5.35;89.00;99525.81;107229;1263;73915;-82
2023/12/29 02:45:15;;;;;;;15.20;11.10;;;;;;;5.36;89.06;99528.20;108279;1259;68765;-80
2023/12/29 02:47:43;;;;;;;15.60;9.80;;;;;;;5.45;89.00;99524.89;108634;1257;71202;-81
2023/12/29 02:50:10;;;;;;;16.10;11.80;;;;;;;5.54;88.70;99523.58;108903;1257;59611;-80
2023/12/29 02:52:37;;;;;;;17.80;11.70;;;;;;;5.54;89.10;99522.05;108504;1260;59081;-83
2023/12/29 02:55:04;;;;;;;15.80;10.80;;;;;;;5.51;89.25;99523.34;108575;1260;72380;-81
2023/12/29 02:57:32;;;;;;;15.10;11.80;;;;;;;5.51;89.30;99525.95;107699;1261;68880;-83
2023/12/29 03:00:01;;;;;;;15.20;11.60;;;;;;;5.58;89.06;99525.13;107583;1257;74161;-85
2023/12/29 03:02:30;;;;;;;16.90;11.60;;;;;;;5.62;89.06;99527.59;107938;1260;60463;-86
2023/12/29 03:04:58;;;;;;;17.30;11.50;;;;;;;5.56;89.17;99523.37;107421;1266;60259;-82
2023/12/29 03:07:25;;;;;;;16.10;11.50;;;;;;;5.47;89.67;99518.39;107790;1259;74109;-80
2023/12/29 03:09:52;;;;;;;17.60;12.20;;;;;;;5.52;89.68;99525.35;108506;1257;69215;-81
2023/12/29 03:12:19;;;;;;;13.80;11.20;;;;;;;5.54;89.55;99531.34;108774;1259;71565;-79
2023/12/29 03:14:47;;;;;;;16.10;12.50;;;;;;;5.49;89.45;99530.73;108160;1259;60276;-84
2023/12/29 03:17:14;;;;;;;16.40;11.20;;;;;;;5.42;89.65;99528.01;108065;1260;60542;-83
2023/12/29 03:19:40;;;;;;;14.00;10.50;;;;;;;5.43;89.54;99531.94;107483;1260;72275;-81
2023/12/29 03:22:08;;;;;;;15.80;11.00;;;;;;;5.43;89.39;99539.70;106920;1258;69192;-82
2023/12/29 03:24:36;;;;;;;17.80;12.30;;;;;;;5.34;89.32;99535.73;106352;1261;71834;-81
2023/12/29 03:27:04;;;;;;;15.30;11.20;;;;;;;5.28;89.14;99532.05;106317;1257;62089;-83
2023/12/29 03:29:31;;;;;;;16.20;11.60;;;;;;;5.29;88.90;99525.45;105995;1263;60427;-84
2023/12/29 03:31:57;;;;;;;15.40;12.40;;;;;;;5.27;88.67;99529.34;105965;1261;72593;-82
2023/12/29 03:34:24;;;;;;;19.80;12.70;;;;;;;5.20;88.67;99531.26;105649;1264;70208;-82
2023/12/29 03:36:51;;;;;;;15.60;11.60;;;;;;;5.17;88.45;99525.92;105647;1262;72954;-80
2023/12/29 03:39:18;;;;;;;15.20;11.30;;;;;;;5.21;88.45;99523.61;107450;1259;60687;-80
2023/12/29 03:41:45;;;;;;;15.30;12.20;;;;;;;5.19;88.23;99520.26;109082;1257;57866;-81
2023/12/29 03:44:12;;;;;;;16.00;11.90;;;;;;;5.14;88.35;99522.86;107682;1260;72619;-79
2023/12/29 03:46:40;;;;;;;15.60;11.00;;;;;;;5.14;88.16;99530.34;106550;1257;68858;-82
2023/12/29 03:49:06;;;;;;;15.20;10.90;;;;;;;5.19;87.59;99532.20;106217;1262;70303;-82
2023/12/29 03:51:34;;;;;;;17.00;11.50;;;;;;;5.18;87.54;99535.30;106329;1260;60515;-86
2023/12/29 03:54:03;;;;;;;17.20;11.50;;;;;;;5.12;87.56;99535.14;106425;1260;61017;-84
2023/12/29 03:56:31;;;;;;;17.00;12.10;;;;;;;5.11;87.60;99528.73;105722;1262;73884;-82
2023/12/29 03:58:58;;;;;;;17.60;12.10;;;;;;;5.15;87.32;99530.77;105914;1259;72032;-83
2023/12/29 04:01:27;;;;;;;18.10;12.20;;;;;;;5.14;87.01;99536.48;106073;1261;72722;-85
2023/12/29 04:03:56;;;;;;;15.10;11.40;;;;;;;5.09;87.00;99534.52;106517;1261;60477;-83
2023/12/29 04:06:23;;;;;;;13.80;11.20;;;;;;;5.14;86.65;99537.04;105883;1257;60534;-81
2023/12/29 04:08:50;;;;;;;13.40;10.70;;;;;;;5.15;86.46;99530.05;105708;1257;73652;-84
2023/12/29 04:11:16;;;;;;;15.70;10.70;;;;;;;5.12;86.45;99529.79;105960;1261;71198;-82
2023/12/29 04:13:43;;;;;;;13.80;10.70;;;;;;;5.11;86.51;99527.67;105971;1263;71364;-81
2023/12/29 04:16:10;;;;;;;14.30;10.70;;;;;;;5.18;86.00;99524.58;106017;1260;61261;-83
2023/12/29 04:18:37;;;;;;;16.30;12.10;;;;;;;5.24;85.55;99520.52;105822;1262;60483;-81
2023/12/29 04:21:04;;;;;;;16.70;12.00;;;;;;;5.20;85.31;99517.34;106255;1258;73727;-83
2023/12/29 04:23:32;;;;;;;15.30;10.60;;;;;;;5.14;85.24;99513.50;108107;1257;69372;-84
2023/12/29 04:25:59;;;;;;;14.40;9.50;;;;;;;5.16;85.30;99511.06;108760;1257;72880;-84
2023/12/29 04:28:26;;;;;;;14.00;10.30;;;;;;;5.17;85.06;99510.79;108199;1258;60413;-83
2023/12/29 04:30:54;;;;;;;15.20;11.10;;;;;;;5.09;85.10;99509.68;106775;1263;60637;-87
2023/12/29 04:33:21;;;;;;;16.20;10.90;;;;;;;5.00;85.36;99505.80;108509;1257;72613;-87
2023/12/29 04:35:51;;;;;;;15.10;10.20;;;;;;;5.00;85.57;99510.43;109051;1259;70135;-86
2023/12/29 04:38:19;;;;;;;15.90;10.60;;;;;;;5.02;85.51;99508.67;108478;1263;71659;-85
2023/12/29 04:40:49;;;;;;;12.80;11.00;;;;;;;4.94;85.75;99507.77;107737;1261;59193;-84
2023/12/29 04:43:16;;;;;;;16.60;11.10;;;;;;;4.84;86.12;99513.55;107359;1259;60450;-82
2023/12/29 04:45:45;;;;;;;15.50;10.70;;;;;;;4.83;86.42;99520.50;108551;1257;72407;-85
2023/12/29 04:48:12;;;;;;;13.80;11.00;;;;;;;4.86;86.49;99518.43;107936;1257;69090;-86
2023/12/29 04:50:39;;;;;;;12.70;10.60;;;;;;;4.81;86.57;99515.77;106066;1257;71576;-84
2023/12/29 04:53:08;;;;;;;16.90;12.00;;;;;;;4.71;86.84;99522.78;106030;1261;60511;-85
2023/12/29 04:55:35;;;;;;;12.90;10.40;;;;;;;4.64;87.10;99521.44;106425;1257;60600;-85
2023/12/29 04:58:03;;;;;;;14.50;10.80;;;;;;;4.67;87.31;99531.94;106257;1258;73994;-85
2023/12/29 05:00:31;;;;;;;15.70;11.30;;;;;;;4.62;87.42;99533.38;106840;1258;68800;-84
2023/12/29 05:02:59;;;;;;;16.60;10.80;;;;;;;4.54;87.80;99536.40;105769;1257;71505;-86
2023/12/29 05:05:26;;;;;;;18.30;11.40;;;;;;;4.53;88.12;99543.96;106188;1259;60471;-87
2023/12/29 05:07:57;;;;;;;17.30;12.60;;;;;;;4.52;87.85;99544.04;105925;1261;59282;-86
2023/12/29 05:10:26;;;;;;;18.20;14.50;;;;;;;4.44;87.98;99547.45;105822;1263;73750;-82
2023/12/29 05:12:53;;;;;;;18.70;13.50;;;;;;;4.36;88.46;99543.19;106138;1258;69327;-83
2023/12/29 05:15:20;;;;;;;24.80;16.00;;;;;;;4.36;88.56;99544.08;106167;1257;72738;-82
2023/12/29 05:17:49;;;;;;;24.40;15.10;;;;;;;4.34;88.64;99546.65;106005;1263;61327;-81
2023/12/29 05:20:16;;;;;;;20.50;14.60;;;;;;;4.28;88.73;99543.34;106695;1258;60358;-80
2023/12/29 05:22:43;;;;;;;17.60;13.30;;;;;;;4.21;89.05;99541.21;106186;1257;72637;-82
2023/12/29 05:25:10;;;;;;;21.50;14.30;;;;;;;4.22;89.12;99541.77;105797;1259;70055;-84
2023/12/29 05:27:37;;;;;;;22.30;14.40;;;;;;;4.21;88.85;99547.13;108664;1257;71355;-83
2023/12/29 05:30:06;;;;;;;23.30;14.80;;;;;;;4.11;89.19;99551.66;109035;1259;59776;-84
2023/12/29 05:32:33;;;;;;;18.00;13.10;;;;;;;4.07;89.43;99544.48;107927;1260;59707;-81
2023/12/29 05:35:00;;;;;;;18.60;13.10;;;;;;;4.08;89.16;99537.92;107694;1257;72347;-83
2023/12/29 05:37:28;;;;;;;22.00;15.20;;;;;;;4.01;89.31;99540.42;107866;1261;71048;-81
2023/12/29 05:39:54;;;;;;;17.60;12.20;;;;;;;3.98;89.16;99539.30;107579;1260;71524;-88
2023/12/29 05:42:22;;;;;;;16.90;13.00;;;;;;;4.00;89.06;99540.70;107402;1263;60394;-85
2023/12/29 05:44:49;;;;;;;17.60;12.50;;;;;;;3.93;89.38;99550.94;107275;1263;60377;-84
2023/12/29 05:47:17;;;;;;;17.20;12.50;;;;;;;3.91;89.54;99544.39;107575;1259;72674;-86
2023/12/29 05:49:46;;;;;;;17.80;11.50;;;;;;;3.99;89.25;99547.61;106186;1257;69115;-83
2023/12/29 05:52:14;;;;;;;17.30;12.80;;;;;;;3.97;89.18;99546.58;106391;1259;71197;-84
2023/12/29 05:54:41;;;;;;;19.30;12.20;;;;;;;3.89;89.25;99541.23;106726;1259;60527;-85
2023/12/29 05:57:09;;;;;;;17.70;11.60;;;;;;;3.82;89.41;99530.43;106742;1259;60539;-85
2023/12/29 05:59:39;;;;;;;14.90;11.50;;;;;;;3.95;89.15;99548.81;107121;1260;74882;-84
2023/12/29 06:02:06;;;;;;;18.80;13.20;;;;;;;3.93;89.16;99548.61;105959;1260;68936;-79
2023/12/29 06:04:33;;;;;;;19.00;13.10;;;;;;;3.87;89.43;99548.60;105603;1260;71438;-78
2023/12/29 06:07:00;;;;;;;16.30;11.70;;;;;;;3.87;89.14;99548.83;105575;1260;61071;-78
2023/12/29 06:09:27;;;;;;;14.90;11.30;;;;;;;3.92;89.06;99557.67;105397;1257;60529;-78
2023/12/29 06:11:54;;;;;;;15.90;11.60;;;;;;;3.88;89.00;99552.23;105513;1261;74193;-78
2023/12/29 06:14:24;;;;;;;17.40;12.10;;;;;;;3.82;89.11;99552.54;105784;1260;70274;-84
2023/12/29 06:16:52;;;;;;;18.20;12.90;;;;;;;3.85;89.03;99558.43;106646;1257;74839;-83
2023/12/29 06:19:20;;;;;;;20.10;13.10;;;;;;;3.85;89.07;99554.07;107384;1258;60521;-83
2023/12/29 06:21:47;;;;;;;18.10;11.80;;;;;;;3.79;89.07;99556.11;108948;1258;58982;-81
2023/12/29 06:24:16;;;;;;;21.20;12.20;;;;;;;3.79;89.33;99554.39;108243;1259;72514;-83
2023/12/29 06:26:44;;;;;;;16.10;11.70;;;;;;;3.86;89.00;99550.66;106859;1262;70141;-79
2023/12/29 06:29:11;;;;;;;18.30;12.20;;;;;;;3.85;88.98;99551.20;106758;1259;72483;-82
2023/12/29 06:31:41;;;;;;;20.90;13.50;;;;;;;3.80;89.21;99552.52;107239;1258;59679;-78
2023/12/29 06:34:09;;;;;;;19.60;15.20;;;;;;;3.79;89.20;99558.08;107192;1262;59662;-80
2023/12/29 06:36:37;;;;;;;20.10;15.20;;;;;;;3.88;88.84;99552.77;107539;1260;72631;-81
2023/12/29 06:39:05;;;;;;;19.40;15.20;;;;;;;3.89;88.79;99546.83;107130;1260;69964;-82
2023/12/29 06:41:33;;;;;;;36.20;26.60;;;;;;;3.88;88.71;99553.64;107323;1258;72621;-79
2023/12/29 06:44:00;;;;;;;20.80;16.10;;;;;;;3.90;88.67;99555.02;106894;1259;61026;-77
2023/12/29 06:46:27;;;;;;;18.00;14.90;;;;;;;4.00;88.51;99547.48;107403;1263;59776;-81
2023/12/29 06:48:54;;;;;;;19.90;14.40;;;;;;;4.02;88.33;99540.02;108234;1264;73013;-81
2023/12/29 06:51:23;;;;;;;18.70;14.00;;;;;;;4.00;88.11;99529.86;106485;1257;68986;-82
2023/12/29 06:53:50;;;;;;;17.50;13.40;;;;;;;4.06;88.20;99529.63;106101;1257;72765;-81
2023/12/29 06:56:17;;;;;;;16.40;12.60;;;;;;;4.12;87.72;99520.37;106211;1257;60471;-81
2023/12/29 06:58:44;;;;;;;16.30;12.20;;;;;;;4.10;87.81;99523.56;105713;1264;60427;-79
2023/12/29 07:01:11;;;;;;;15.90;12.00;;;;;;;4.07;87.60;99519.70;106028;1261;73813;-78
2023/12/29 07:03:39;;;;;;;17.00;11.30;;;;;;;4.16;87.43;99519.70;105933;1259;70357;-82
2023/12/29 07:06:06;;;;;;;17.60;12.30;;;;;;;4.21;87.35;99526.77;105843;1263;71189;-82
2023/12/29 07:08:33;;;;;;;17.90;12.20;;;;;;;4.19;87.20;99526.06;106140;1260;60438;-80
2023/12/29 07:11:02;;;;;;;18.60;12.70;;;;;;;4.17;87.15;99528.36;107212;1258;59339;-82
2023/12/29 07:13:29;;;;;;;21.10;16.20;;;;;;;4.25;86.95;99532.73;106960;1262;73743;-79
2023/12/29 07:15:57;;;;;;;20.50;15.80;;;;;;;4.35;86.53;99532.79;107469;1259;69264;-82
2023/12/29 07:18:24;;;;;;;20.50;14.00;;;;;;;4.36;86.56;99527.64;108962;1259;72475;-80
2023/12/29 07:20:51;;;;;;;22.70;13.70;;;;;;;4.33;86.38;99534.29;108067;1260;60429;-84
2023/12/29 07:23:19;;;;;;;20.50;13.60;;;;;;;4.42;86.28;99533.70;107092;1261;60370;-80
2023/12/29 07:25:47;;;;;;;18.80;12.50;;;;;;;4.52;85.89;99535.51;106442;1259;72351;-81
2023/12/29 07:28:14;;;;;;;17.90;13.30;;;;;;;4.52;85.69;99532.88;106318;1259;69163;-82
2023/12/29 07:34:15;;;;;;;17.60;12.10;;;;;;;4.61;85.57;99539.46;103227;1293;614023;-81
2023/12/29 07:36:43;;;;;;;19.10;13.80;;;;;;;4.61;85.24;99537.37;105750;1267;59516;-85
2023/12/29 07:39:10;;;;;;;18.40;12.90;;;;;;;4.62;85.17;99539.41;105846;1267;60380;-82
2023/12/29 07:41:41;;;;;;;17.50;12.80;;;;;;;4.70;84.83;99543.58;106013;1267;69988;-84
2023/12/29 07:44:12;;;;;;;21.50;13.70;;;;;;;4.70;84.62;99537.98;106476;1266;70120;-82
2023/12/29 07:46:40;;;;;;;20.30;14.20;;;;;;;4.64;84.82;99536.20;106755;1264;219222;-82
2023/12/29 07:49:06;;;;;;;16.80;12.00;;;;;;;4.72;84.97;99535.00;106481;1265;60888;-79
2023/12/29 07:51:34;;;;;;;18.20;12.90;;;;;;;4.81;84.68;99538.20;107449;1260;59234;-83
2023/12/29 07:54:01;;;;;;;16.30;12.30;;;;;;;4.82;84.43;99539.49;107655;1257;70682;-82
2023/12/29 07:56:29;;;;;;;18.00;13.00;;;;;;;4.81;84.52;99541.34;108327;1257;70190;-81
2023/12/29 07:58:55;;;;;;;17.30;12.20;;;;;;;4.86;84.48;99542.80;108879;1257;71103;-85
2023/12/29 08:01:22;;;;;;;15.90;12.30;;;;;;;4.98;83.96;99547.10;107118;1257;59726;-84
2023/12/29 08:03:49;;;;;;;16.60;13.00;;;;;;;4.99;83.73;99547.73;106079;1260;60066;-80
2023/12/29 08:06:16;;;;;;;19.30;12.70;;;;;;;4.94;83.86;99550.96;105950;1260;72950;-81
2023/12/29 08:08:42;;;;;;;15.80;11.70;;;;;;;4.91;83.87;99554.51;105755;1260;70390;-77
2023/12/29 08:11:16;;;;;;;16.90;11.50;;;;;;;5.01;83.86;99558.76;108287;1257;72560;-79
2023/12/29 08:13:44;;;;;;;16.90;12.00;;;;;;;5.05;83.58;99560.10;108944;1256;58877;-80
2023/12/29 08:16:11;;;;;;;20.60;14.10;;;;;;;5.05;83.50;99562.75;107063;1254;59218;-82
2023/12/29 08:18:38;;;;;;;19.30;14.30;;;;;;;5.03;83.57;99565.21;108032;1254;72010;-82
2023/12/29 08:21:05;;;;;;;17.40;12.60;;;;;;;5.11;83.26;99560.48;107645;1257;70081;-81
2023/12/29 08:23:32;;;;;;;21.80;14.20;;;;;;;5.19;83.03;99557.48;108481;1254;71139;-81
2023/12/29 08:25:59;;;;;;;17.90;13.00;;;;;;;5.21;83.05;99552.58;108980;1254;59536;-81
2023/12/29 08:28:27;;;;;;;18.80;13.20;;;;;;;5.23;83.12;99553.91;109172;1254;59068;-84
2023/12/29 08:30:54;;;;;;;17.00;11.60;;;;;;;5.28;82.94;99560.55;109412;1254;71547;-82
2023/12/29 08:33:21;;;;;;;20.30;12.40;;;;;;;5.40;82.55;99558.20;109200;1256;68808;-81
2023/12/29 08:35:48;;;;;;;15.20;11.10;;;;;;;5.52;82.16;99552.79;109209;1257;71467;-82
2023/12/29 08:38:15;;;;;;;15.10;10.70;;;;;;;5.53;82.10;99547.95;108908;1256;59330;-82
2023/12/29 08:40:42;;;;;;;18.00;12.50;;;;;;;5.52;81.47;99552.38;109073;1256;59483;-80
2023/12/29 08:43:09;;;;;;;16.60;11.10;;;;;;;5.53;81.31;99550.40;107453;1259;71555;-81
2023/12/29 08:45:36;;;;;;;11.50;9.40;;;;;;;5.61;81.30;99553.52;107832;1257;68791;-80
2023/12/29 08:48:04;;;;;;;14.50;10.70;;;;;;;5.63;81.29;99554.41;107954;1256;71314;-80
2023/12/29 08:50:31;;;;;;;17.00;10.30;;;;;;;5.63;81.35;99553.85;108878;1257;59093;-80
2023/12/29 08:52:59;;;;;;;16.60;10.00;;;;;;;5.66;81.14;99553.88;107680;1255;59724;-82
2023/12/29 08:55:26;;;;;;;14.30;10.10;;;;;;;5.77;80.84;99552.39;107390;1259;73433;-81
2023/12/29 08:57:53;;;;;;;18.00;11.10;;;;;;;5.92;80.41;99549.95;106635;1257;68747;-82
2023/12/29 09:00:20;;;;;;;12.70;10.60;;;;;;;5.99;80.07;99551.30;106616;1257;73118;-82
2023/12/29 09:02:47;;;;;;;16.40;11.10;;;;;;;6.02;79.73;99546.23;107711;1255;59186;-79
2023/12/29 09:05:14;;;;;;;17.50;11.60;;;;;;;6.10;79.54;99551.46;107872;1257;58741;-80
2023/12/29 09:07:41;;;;;;;14.30;10.40;;;;;;;6.29;79.71;99552.84;107193;1258;71433;-81
2023/12/29 09:10:10;;;;;;;19.30;11.10;;;;;;;6.59;78.50;99545.29;107416;1259;68927;-83
2023/12/29 09:12:39;;;;;;;14.40;10.70;;;;;;;6.76;77.33;99548.73;107922;1257;71365;-85
2023/12/29 09:15:07;;;;;;;14.70;10.70;;;;;;;6.86;76.88;99541.95;107227;1257;60204;-87
2023/12/29 09:17:35;;;;;;;13.60;11.00;;;;;;;7.07;76.93;99538.54;107235;1257;59449;-86
2023/12/29 09:20:03;;;;;;;18.00;13.00;;;;;;;7.28;75.68;99529.62;107536;1257;71835;-86
2023/12/29 09:22:38;;;;;;;17.30;10.90;;;;;;;7.40;75.26;99526.31;108750;1259;70345;-86
2023/12/29 09:25:09;;;;;;;14.70;9.50;;;;;;;7.53;74.42;99517.63;107558;1258;71400;-84
2023/12/29 09:27:36;;;;;;;15.50;10.40;;;;;;;7.64;73.93;99519.25;106739;1263;59623;-85
2023/12/29 09:30:04;;;;;;;16.10;9.90;;;;;;;7.62;73.44;99515.40;106725;1256;60232;-84
2023/12/29 09:32:32;;;;;;;14.20;10.20;;;;;;;7.55;73.25;99520.58;106576;1256;73036;-83
2023/12/29 09:34:59;;;;;;;13.00;10.60;;;;;;;7.46;73.25;99518.96;106586;1260;70380;-83
2023/12/29 09:37:26;;;;;;;13.00;9.30;;;;;;;7.39;73.30;99518.78;106848;1256;72663;-85
2023/12/29 09:39:53;;;;;;;13.20;8.70;;;;;;;7.35;73.77;99519.73;106779;1256;59614;-81
2023/12/29 09:42:24;;;;;;;14.20;9.50;;;;;;;7.41;73.46;99514.45;106680;1257;60335;-82
2023/12/29 09:44:52;;;;;;;13.60;9.30;;;;;;;7.53;73.60;99514.45;107237;1254;71609;-85
2023/12/29 09:47:24;;;;;;;12.50;9.80;;;;;;;7.58;73.23;99516.91;107048;1254;70474;-84
2023/12/29 09:49:54;;;;;;;13.90;9.70;;;;;;;7.63;73.14;99515.18;107181;1254;72463;-85
2023/12/29 09:52:22;;;;;;;14.30;9.80;;;;;;;7.67;73.20;99512.11;106766;1258;59589;-84
2023/12/29 09:54:52;;;;;;;15.00;10.40;;;;;;;7.71;73.02;99515.44;108702;1254;58934;-82
2023/12/29 09:57:19;;;;;;;13.40;9.20;;;;;;;7.76;72.78;99512.13;109417;1254;71591;-84
2023/12/29 09:59:51;;;;;;;11.90;7.80;;;;;;;7.83;72.34;99509.48;108569;1254;68869;-84
2023/12/29 10:02:18;;;;;;;12.60;9.40;;;;;;;7.99;71.35;99506.91;108510;1254;71175;-85
2023/12/29 10:04:44;;;;;;;14.10;9.90;;;;;;;8.05;71.54;99502.81;107102;1259;59714;-85
2023/12/29 10:07:15;;;;;;;13.60;8.90;;;;;;;8.03;71.13;99501.21;107066;1253;60627;-84
2023/12/29 10:09:42;;;;;;;13.90;10.20;;;;;;;7.99;71.16;99502.81;106932;1260;74640;-84
2023/12/29 10:12:10;;;;;;;15.10;12.40;;;;;;;7.94;71.36;99507.62;107186;1254;70500;-84
2023/12/29 10:14:48;;;;;;;23.60;13.60;;;;;;;7.87;71.46;99499.01;106842;1253;71066;-84
2023/12/29 10:17:55;;;;;;;18.60;13.10;;;;;;;7.75;71.95;99500.37;107065;1257;59919;-83
2023/12/29 10:20:56;;;;;;;21.50;12.80;;;;;;;7.70;72.43;99490.30;106932;1257;60174;-82
2023/12/29 10:23:30;;;;;;;19.10;13.00;;;;;;;7.86;72.22;99479.14;108655;1254;72842;-81
2023/12/29 10:25:57;;;;;;;;;;;;;;;7.93;72.01;99480.20;108529;1254;69095;-83
2023/12/29 10:28:24;;;;;;;15.80;11.90;;;;;;;7.90;71.75;99476.41;106990;1254;71304;-83
2023/12/29 10:30:51;;;;;;;16.70;11.20;;;;;;;7.85;72.15;99474.16;106863;1258;59618;-84
2023/12/29 10:33:21;;;;;;;15.30;11.40;;;;;;;7.82;72.14;99480.23;107587;1254;59622;-84
2023/12/29 10:36:02;;;;;;;18.00;11.30;;;;;;;7.82;72.07;99479.93;108298;1253;71882;-83
2023/12/29 10:38:30;;;;;;;16.30;10.40;;;;;;;7.84;71.99;99483.02;107297;1254;69276;-82
2023/12/29 10:41:23;;;;;;;16.10;11.20;;;;;;;7.88;71.77;99479.45;107265;1254;72687;-83
2023/12/29 10:43:54;;;;;;;20.50;13.10;;;;;;;8.01;71.62;99481.45;107786;1255;59190;-80
2023/12/29 10:46:21;;;;;;;17.60;13.20;;;;;;;8.01;71.20;99477.06;108025;1254;59339;-79
2023/12/29 10:48:48;;;;;;;18.50;13.30;;;;;;;8.00;71.19;99472.13;109119;1254;71513;-80
2023/12/29 10:51:15;;;;;;;13.90;11.50;;;;;;;7.93;71.09;99476.69;108890;1254;68936;-81
2023/12/29 10:53:43;;;;;;;18.10;10.60;;;;;;;7.79;71.42;99473.91;108827;1252;72776;-80
2023/12/29 10:56:19;;;;;;;18.50;13.30;;;;;;;7.67;71.98;99480.93;108648;1254;60224;-83
2023/12/29 10:58:47;;;;;;;19.10;11.90;;;;;;;7.58;72.21;99481.52;108587;1253;59464;-82
2023/12/29 11:01:15;;;;;;;17.70;12.10;;;;;;;7.56;72.75;99478.49;108349;1254;72329;-78
2023/12/29 11:03:44;;;;;;;19.40;12.20;;;;;;;7.67;72.49;99479.19;108991;1254;69428;-83
2023/12/29 11:06:11;;;;;;;15.80;12.00;;;;;;;7.74;72.80;99484.25;107159;1254;71236;-82
2023/12/29 11:08:39;;;;;;;16.90;11.90;;;;;;;7.77;72.57;99484.10;107250;1254;61086;-83
2023/12/29 11:11:06;;;;;;;15.60;11.00;;;;;;;7.80;72.30;99481.67;107115;1253;60394;-80
2023/12/29 11:13:35;;;;;;;18.20;11.30;;;;;;;7.85;72.41;99479.47;107088;1254;72585;-83
2023/12/29 11:16:03;;;;;;;14.60;10.90;;;;;;;7.90;72.40;99474.38;107076;1254;69026;-83
2023/12/29 11:18:30;;;;;;;17.80;11.90;;;;;;;7.95;71.97;99470.31;106748;1254;72560;-81
2023/12/29 11:20:59;;;;;;;15.10;10.60;;;;;;;8.00;72.09;99466.24;106593;1255;60731;-82
2023/12/29 11:23:26;;;;;;;17.20;10.80;;;;;;;8.14;71.41;99462.23;106682;1255;61307;-83
2023/12/29 11:25:53;;;;;;;15.70;11.00;;;;;;;8.21;71.28;99455.29;106451;1254;72832;-81
2023/12/29 11:28:19;;;;;;;17.10;11.80;;;;;;;8.14;70.90;99458.46;106607;1254;69726;-82
2023/12/29 11:30:46;;;;;;;15.80;11.10;;;;;;;8.02;71.33;99447.67;106984;1255;71787;-82
2023/12/29 11:33:25;;;;;;;19.70;12.20;;;;;;;7.90;71.75;99445.77;107132;1253;59627;-81